CDT,Max TemperatureF,Mean TemperatureF,Min TemperatureF,Max Dew PointF,MeanDew PointF,Min DewpointF,Max Humidity, Mean Humidity, Min Humidity, Max Sea Level PressureIn, Mean Sea Level PressureIn, Min Sea Level PressureIn, Max VisibilityMiles, Mean VisibilityMiles, Min VisibilityMiles, Max Wind SpeedMPH, Mean Wind SpeedMPH, Max Gust SpeedMPH,PrecipitationIn, CloudCover, Events, WindDirDegrees
2013-3-1,50,41,32,33,29,24,89,65,39,30.23,30.18,30.13,10,10,10,9,1,20,0.00,3,,327
2013-3-2,48,38,28,32,24,20,90,58,33,30.30,30.26,30.21,10,10,10,10,2,25,0.00,5,,331
2013-3-3,56,40,24,31,26,22,90,58,30,30.29,30.19,30.05,10,9,7,8,1,,0.00,0,,163
2013-3-4,75,60,44,57,46,31,78,59,40,30.05,29.88,29.75,10,10,10,23,7,32,0.00,2,,177
2013-3-5,66,56,46,60,39,20,82,51,25,30.29,30.05,29.80,10,10,7,21,8,33,0.00,3,Rain,289
2013-3-6,59,46,32,32,26,18,79,49,24,30.40,30.33,30.28,10,10,10,10,1,17,0.00,0,,340
2013-3-7,61,46,32,36,32,28,92,61,29,30.39,30.31,30.26,10,10,5,7,0,,0.00,0,,70
2013-3-8,70,54,37,41,35,32,86,51,25,30.33,30.24,30.13,10,10,10,8,0,,0.00,0,,85
2013-3-9,73,62,52,56,48,35,71,58,38,30.14,30.03,29.90,10,10,10,14,3,21,0.00,3,Rain,152
2013-3-10,67,58,48,62,55,39,92,83,67,29.98,29.88,29.81,10,8,2,16,5,26,0.40,7,Rain-Thunderstorm,193
2013-3-11,59,49,39,39,32,28,82,54,32,30.07,30.00,29.96,10,10,10,15,7,24,0.00,1,,287
2013-3-12,66,50,33,38,30,22,94,55,20,30.26,30.17,30.07,10,10,5,10,0,,0.00,0,,343
2013-3-13,66,52,39,36,25,6,81,42,10,30.46,30.39,30.26,10,10,10,13,2,21,0.00,0,,345
2013-3-14,73,54,34,39,31,25,86,50,19,30.46,30.36,30.24,10,10,10,8,1,,0.00,0,,208
2013-3-15,81,66,51,52,41,35,64,43,20,30.23,30.13,30.00,10,10,10,14,5,21,0.00,0,,215
2013-3-16,81,70,59,56,52,46,83,58,29,30.02,29.95,29.84,10,10,10,17,10,24,0.00,1,,200
2013-3-17,82,69,56,62,57,53,91,67,37,29.93,29.84,29.72,10,10,7,15,6,22,0.00,2,,184
2013-3-18,79,67,55,63,59,49,84,74,55,30.03,29.82,29.74,10,10,7,14,7,24,0.00,4,Thunderstorm,233
2013-3-19,69,56,43,50,38,28,93,54,22,30.16,30.09,30.04,10,10,7,13,2,18,0.00,0,,58
2013-3-20,68,56,43,34,26,16,71,36,13,30.27,30.16,30.09,10,10,10,14,1,20,0.00,1,,353
2013-3-21,58,50,41,41,27,12,77,45,20,30.10,29.99,29.84,10,10,10,10,2,,0.01,3,Rain,86
2013-3-22,55,50,45,50,45,34,92,82,47,29.88,29.83,29.79,10,7,2,10,3,20,0.67,8,Rain-Thunderstorm,75
2013-3-23,56,53,50,54,51,48,94,91,88,29.86,29.77,29.60,10,4,0,13,1,48,0.24,8,Fog-Rain-Thunderstorm,337
2013-3-24,54,46,39,51,39,28,94,68,39,30.09,29.85,29.64,10,8,0,25,8,34,0.00,5,Fog,290
2013-3-25,57,44,32,28,22,14,82,45,20,30.35,30.21,30.10,10,10,10,21,6,32,0.00,0,,311
2013-3-26,55,42,28,32,24,18,85,55,25,30.45,30.39,30.35,10,10,10,14,2,21,0.00,0,,307
2013-3-27,64,48,31,33,28,21,89,54,20,30.46,30.36,30.27,10,10,10,8,0,,0.00,0,,164
2013-3-28,73,54,36,40,34,28,86,52,21,30.36,30.29,30.22,10,10,10,8,0,,0.00,0,,147
2013-3-29,79,63,47,54,45,36,83,55,28,30.26,30.20,30.13,10,10,10,13,2,20,0.00,5,,209
2013-3-30,72,64,57,61,58,50,92,81,66,30.15,30.06,29.98,10,9,2,12,2,17,0.20,4,Rain-Thunderstorm,213
2013-3-31,68,62,55,63,59,53,94,87,70,30.03,29.95,29.80,10,7,0,16,4,38,0.67,5,Fog-Rain-Thunderstorm,226